sensor_id;sensor_type;location;lat;lon;timestamp;temperature;humidity
14775;DHT22;7479;47.042;15.160;2023-03-14T07:29:39;12.70;99.90
14775;DHT22;7479;47.042;15.160;2023-03-14T07:34:34;13.00;99.90
14775;DHT22;7479;47.042;15.160;2023-03-14T07:39:27;13.20;99.90
14775;DHT22;7479;47.042;15.160;2023-03-14T07:44:25;13.60;99.90
14775;DHT22;7479;47.042;15.160;2023-03-14T07:49:20;13.90;99.90
14775;DHT22;7479;47.042;15.160;2023-03-14T07:54:14;14.30;99.90
14775;DHT22;7479;47.042;15.160;2023-03-14T07:59:07;14.80;99.90
14775;DHT22;7479;47.042;15.160;2023-03-14T08:04:01;15.00;99.90
14775;DHT22;7479;47.042;15.160;2023-03-14T08:08:56;15.30;99.90
14775;DHT22;7479;47.042;15.160;2023-03-14T08:13:50;15.50;99.90
14775;DHT22;7479;47.042;15.160;2023-03-14T08:18:44;15.40;99.90
14775;DHT22;7479;47.042;15.160;2023-03-14T08:23:38;15.30;99.90
14775;DHT22;7479;47.042;15.160;2023-03-14T08:28:33;15.00;99.90
14775;DHT22;7479;47.042;15.160;2023-03-14T08:33:27;14.80;99.90
14775;DHT22;7479;47.042;15.160;2023-03-14T08:38:22;14.80;99.90
14775;DHT22;7479;47.042;15.160;2023-03-14T08:43:15;14.80;99.90
14775;DHT22;7479;47.042;15.160;2023-03-14T08:48:26;14.80;99.90
14775;DHT22;7479;47.042;15.160;2023-03-14T08:53:21;14.90;99.90
14775;DHT22;7479;47.042;15.160;2023-03-14T08:58:15;14.80;99.90
14775;DHT22;7479;47.042;15.160;2023-03-14T09:03:08;14.90;99.90
14775;DHT22;7479;47.042;15.160;2023-03-14T09:08:04;14.80;99.90
14775;DHT22;7479;47.042;15.160;2023-03-14T09:12:58;14.80;99.90
14775;DHT22;7479;47.042;15.160;2023-03-14T09:17:52;14.90;99.90
14775;DHT22;7479;47.042;15.160;2023-03-14T09:22:46;14.90;99.90
14775;DHT22;7479;47.042;15.160;2023-03-14T09:27:41;14.80;99.90
14775;DHT22;7479;47.042;15.160;2023-03-14T09:47:15;14.50;99.90
14775;DHT22;7479;47.042;15.160;2023-03-14T09:52:15;14.60;99.90
14775;DHT22;7479;47.042;15.160;2023-03-14T09:57:13;14.80;99.30
14775;DHT22;7479;47.042;15.160;2023-03-14T10:02:18;15.20;99.90
14775;DHT22;7479;47.042;15.160;2023-03-14T10:07:14;15.40;94.40
14775;DHT22;7479;47.042;15.160;2023-03-14T10:12:08;15.80;94.90
14775;DHT22;7479;47.042;15.160;2023-03-14T10:17:07;16.10;92.60
14775;DHT22;7479;47.042;15.160;2023-03-14T10:22:04;16.50;92.00
14775;DHT22;7479;47.042;15.160;2023-03-14T10:27:00;16.00;90.60
14775;DHT22;7479;47.042;15.160;2023-03-14T10:31:58;15.70;91.30
14775;DHT22;7479;47.042;15.160;2023-03-14T10:36:54;15.80;91.50
14775;DHT22;7479;47.042;15.160;2023-03-14T10:41:51;15.90;91.40
14775;DHT22;7479;47.042;15.160;2023-03-14T10:46:46;15.90;91.20
14775;DHT22;7479;47.042;15.160;2023-03-14T10:51:50;15.60;91.10
14775;DHT22;7479;47.042;15.160;2023-03-14T10:56:44;15.20;91.50
14775;DHT22;7479;47.042;15.160;2023-03-14T11:01:43;15.00;91.40
14775;DHT22;7479;47.042;15.160;2023-03-14T11:06:44;15.00;91.40
14775;DHT22;7479;47.042;15.160;2023-03-14T11:11:46;15.10;91.40
14775;DHT22;7479;47.042;15.160;2023-03-14T11:16:50;15.00;90.40
14775;DHT22;7479;47.042;15.160;2023-03-14T11:21:51;15.10;90.30
14775;DHT22;7479;47.042;15.160;2023-03-14T11:26:51;15.30;90.20
14775;DHT22;7479;47.042;15.160;2023-03-14T11:31:50;15.40;88.90
14775;DHT22;7479;47.042;15.160;2023-03-14T11:36:51;15.60;88.10
14775;DHT22;7479;47.042;15.160;2023-03-14T11:41:47;15.40;86.10
14775;DHT22;7479;47.042;15.160;2023-03-14T11:46:44;15.40;86.20
14775;DHT22;7479;47.042;15.160;2023-03-14T11:51:46;15.10;86.00
14775;DHT22;7479;47.042;15.160;2023-03-14T11:56:47;15.10;86.30
14775;DHT22;7479;47.042;15.160;2023-03-14T12:01:53;15.10;86.70
14775;DHT22;7479;47.042;15.160;2023-03-14T12:06:51;15.20;86.70
14775;DHT22;7479;47.042;15.160;2023-03-14T12:11:48;15.20;86.00
14775;DHT22;7479;47.042;15.160;2023-03-14T12:16:46;15.20;86.80
14775;DHT22;7479;47.042;15.160;2023-03-14T12:21:47;15.30;86.70
14775;DHT22;7479;47.042;15.160;2023-03-14T12:26:51;15.30;85.80
14775;DHT22;7479;47.042;15.160;2023-03-14T12:31:46;15.10;86.40
14775;DHT22;7479;47.042;15.160;2023-03-14T12:37:05;15.20;85.90
14775;DHT22;7479;47.042;15.160;2023-03-14T12:42:08;15.40;85.90
14775;DHT22;7479;47.042;15.160;2023-03-14T12:47:41;15.60;85.90
14775;DHT22;7479;47.042;15.160;2023-03-14T12:52:41;15.60;85.50
14775;DHT22;7479;47.042;15.160;2023-03-14T12:57:45;15.40;84.20
14775;DHT22;7479;47.042;15.160;2023-03-14T13:03:12;15.30;85.40
14775;DHT22;7479;47.042;15.160;2023-03-14T13:08:10;15.20;84.70
14775;DHT22;7479;47.042;15.160;2023-03-14T13:13:19;15.10;86.50
14775;DHT22;7479;47.042;15.160;2023-03-14T13:18:16;15.10;85.80
14775;DHT22;7479;47.042;15.160;2023-03-14T13:23:20;15.00;85.20
14775;DHT22;7479;47.042;15.160;2023-03-14T13:28:16;14.90;86.80
14775;DHT22;7479;47.042;15.160;2023-03-14T13:33:15;14.90;86.80
14775;DHT22;7479;47.042;15.160;2023-03-14T13:38:18;15.00;87.00
14775;DHT22;7479;47.042;15.160;2023-03-14T13:43:17;15.00;85.40
14775;DHT22;7479;47.042;15.160;2023-03-14T13:48:27;15.00;86.10
14775;DHT22;7479;47.042;15.160;2023-03-14T13:53:22;15.00;85.50
14775;DHT22;7479;47.042;15.160;2023-03-14T13:58:31;15.10;85.80
14775;DHT22;7479;47.042;15.160;2023-03-14T14:03:26;15.10;85.90
14775;DHT22;7479;47.042;15.160;2023-03-14T14:08:20;15.20;85.90
14775;DHT22;7479;47.042;15.160;2023-03-14T14:13:16;15.40;85.50
14775;DHT22;7479;47.042;15.160;2023-03-14T14:18:14;15.40;85.40
14775;DHT22;7479;47.042;15.160;2023-03-14T14:23:11;15.30;84.00
14775;DHT22;7479;47.042;15.160;2023-03-14T14:28:16;15.20;85.50
14775;DHT22;7479;47.042;15.160;2023-03-14T14:33:18;15.10;84.70
14775;DHT22;7479;47.042;15.160;2023-03-14T14:38:12;15.00;86.10
14775;DHT22;7479;47.042;15.160;2023-03-14T14:43:16;14.80;86.60
14775;DHT22;7479;47.042;15.160;2023-03-14T14:48:12;14.90;86.80
14775;DHT22;7479;47.042;15.160;2023-03-14T14:53:21;14.90;86.80
14775;DHT22;7479;47.042;15.160;2023-03-14T14:58:23;14.80;88.30
14775;DHT22;7479;47.042;15.160;2023-03-14T15:03:18;14.90;88.40
14775;DHT22;7479;47.042;15.160;2023-03-14T15:08:12;14.90;88.00
14775;DHT22;7479;47.042;15.160;2023-03-14T15:13:06;14.90;88.90
14775;DHT22;7479;47.042;15.160;2023-03-14T15:18:00;14.90;88.90
14775;DHT22;7479;47.042;15.160;2023-03-14T15:22:55;14.80;89.60
14775;DHT22;7479;47.042;15.160;2023-03-14T15:27:49;14.80;89.80
14775;DHT22;7479;47.042;15.160;2023-03-14T15:32:44;14.70;90.10
14775;DHT22;7479;47.042;15.160;2023-03-14T15:37:38;14.60;90.50
14775;DHT22;7479;47.042;15.160;2023-03-14T15:42:34;14.80;90.50
14775;DHT22;7479;47.042;15.160;2023-03-14T15:47:27;15.00;90.40
14775;DHT22;7479;47.042;15.160;2023-03-14T15:52:24;14.80;90.80
14775;DHT22;7479;47.042;15.160;2023-03-14T15:57:18;14.50;91.30
14775;DHT22;7479;47.042;15.160;2023-03-14T16:02:15;14.30;91.80
14775;DHT22;7479;47.042;15.160;2023-03-14T16:07:09;14.10;92.30
14775;DHT22;7479;47.042;15.160;2023-03-14T16:12:04;13.90;92.80
14775;DHT22;7479;47.042;15.160;2023-03-14T16:16:59;13.60;93.30
14775;DHT22;7479;47.042;15.160;2023-03-14T16:21:54;13.50;93.70
14775;DHT22;7479;47.042;15.160;2023-03-14T16:26:48;13.50;93.60
